Huvudsida
METAR-TAF:

METAR-TAF

Flygplatser :

Mora-Siljan flygplats

Mora, Sverige

latitud: 60-57-31N, longitud: 14-30-40E, höjd: 193 m

Aktuellt väderrapport

Denna rapport gjordes för 38 minuter sedan, klockan 06:50 UTC
Vind 4 kt från nordväst
Temperatur -7°C
Fuktighet 100%
Tryck 999 hPa
Sikt 10 km eller mer

METAR: ESKM 250650Z AUTO 32004KT 9999 OVC010/// M07/M07 Q0999

Tid: 08:28 (07:28 UTC)


TAF: saknas

Aktuella väderrapporter och prognoser från 4000 flygplatser (METAR- och TAF-rapporter).

De tillgängliga stationerna syns som gula och röda prickar på kartan.

För musen över prickarna för att se namnen på stationerna.

Klicka sedan för att få väderrapporter och prognoser.

För att ändra kartan: Klicka på de gröna knapparna med ett svart kors på för att zooma in; den gröna knappen med ett streck på för att zooma ut; eller på de gröna pilarna för angränsande kartor.


METAR-TAF: